TW-0024 weather

Taipei City Hospital Heliport
Taipei, Taipei (municipality), Taiwan

Public forecast

Using degrees Celsius for public forecast. Weather courtesy of forecast.io.

METAR (pilot weather report)

Closest report is Taipei Songshan Airport, 2.6 nm (4.8 km) ENE. Retrieved 2019/09/23 06:30 UTC (0 seconds ago):

RCSS 230630Z 09010KT 9999 FEW020 SCT040 28/21 Q1015 NOSIG RMK A3000

TAF (pilot weather forecast)

Closest forecast is Taipei Songshan Airport, 2.6 nm (4.8 km) ENE. Retrieved 2019/09/23 06:00 UTC (14 minutes ago):

TAF RCSS 230500Z 2306/2406 08005KT 9999 FEW020 BKN035 TEMPO 2306/2311 07011KT TEMPO 2314/2320 5000 RA SCT010 BKN020 BKN035 BECMG 2401/2403 08011KT TEMPO 2401/2405 5000 RA SCT008 BKN017 BKN030